createdAt,value
2019-02-07T00:00:31.377Z,99.20
2019-02-07T00:03:04.935Z,99.00
2019-02-07T00:05:31.125Z,98.80
2019-02-07T00:08:09.073Z,98.70
2019-02-07T00:10:45.375Z,98.60
2019-02-07T00:13:14.351Z,98.60
2019-02-07T00:15:44.751Z,98.60
2019-02-07T00:18:19.674Z,98.50
2019-02-07T00:20:51.790Z,98.40
2019-02-07T00:23:25.229Z,98.10
2019-02-07T00:26:00.144Z,98.00
2019-02-07T00:28:42.647Z,98.20
2019-02-07T00:31:11.733Z,98.20
2019-02-07T00:33:53.117Z,98.20
2019-02-07T00:36:33.961Z,98.20
2019-02-07T00:39:06.581Z,98.10
2019-02-07T00:41:40.317Z,98.10
2019-02-07T00:44:25.718Z,98.30
2019-02-07T00:46:53.065Z,98.40
2019-02-07T00:49:24.944Z,98.30
2019-02-07T00:51:53.743Z,98.20
2019-02-07T00:54:35.395Z,98.20
2019-02-07T00:57:04.035Z,98.30
2019-02-07T00:59:45.233Z,97.80
2019-02-07T01:02:19.716Z,97.50
2019-02-07T01:04:56.109Z,97.10
2019-02-07T01:07:27.771Z,97.10
2019-02-07T01:10:18.907Z,97.00
2019-02-07T01:12:54.785Z,97.20
2019-02-07T01:15:25.237Z,97.50
2019-02-07T01:18:05.009Z,97.60
2019-02-07T01:20:38.331Z,97.60
2019-02-07T01:23:11.669Z,97.70
2019-02-07T01:25:44.415Z,97.70
2019-02-07T01:28:39.763Z,97.80
2019-02-07T01:34:47.901Z,97.90
2019-02-07T01:37:17.009Z,97.80
2019-02-07T01:39:49.716Z,97.90
2019-02-07T01:42:22.163Z,98.20
2019-02-07T01:44:52.681Z,98.30
2019-02-07T01:47:30.572Z,97.60
2019-02-07T01:50:05.136Z,97.50
2019-02-07T01:52:37.451Z,97.60
2019-02-07T01:55:12.236Z,97.50
2019-02-07T01:57:41.121Z,97.70
2019-02-07T02:00:18.517Z,97.70
2019-02-07T02:02:48.095Z,97.50
2019-02-07T02:05:25.824Z,97.50
2019-02-07T02:07:54.892Z,97.70
2019-02-07T02:10:28.484Z,98.00
2019-02-07T02:13:00.139Z,98.20
2019-02-07T02:15:30.793Z,98.20
2019-02-07T02:18:12.684Z,98.10
2019-02-07T02:20:43.923Z,98.00
2019-02-07T02:23:19.637Z,97.60
2019-02-07T02:25:49.791Z,97.50
2019-02-07T02:28:18.631Z,97.40
2019-02-07T02:30:51.299Z,97.40
2019-02-07T02:33:22.639Z,97.30
2019-02-07T02:35:56.513Z,97.30
2019-02-07T02:38:26.229Z,97.40
2019-02-07T02:40:56.489Z,97.30
2019-02-07T02:43:28.589Z,97.20
2019-02-07T02:45:59.751Z,97.20
2019-02-07T02:48:30.021Z,97.20
2019-02-07T02:50:59.330Z,97.20
2019-02-07T02:53:28.003Z,97.30
2019-02-07T02:55:57.397Z,97.30
2019-02-07T02:58:29.270Z,97.20
2019-02-07T03:00:59.815Z,97.10
2019-02-07T03:03:30.435Z,96.90
2019-02-07T03:06:03.879Z,96.90
2019-02-07T03:08:53.137Z,96.90
2019-02-07T03:11:23.656Z,96.80
2019-02-07T03:13:54.069Z,96.80
2019-02-07T03:16:24.824Z,96.80
2019-02-07T03:18:55.379Z,96.80
2019-02-07T03:21:42.292Z,96.90
2019-02-07T03:24:12.853Z,96.80
2019-02-07T03:27:00.869Z,96.80
2019-02-07T03:29:37.777Z,96.80
2019-02-07T03:32:12.182Z,96.80
2019-02-07T03:34:45.921Z,96.80
2019-02-07T03:37:16.419Z,96.80
2019-02-07T03:40:05.145Z,97.00
2019-02-07T03:42:53.292Z,96.90
2019-02-07T03:45:30.166Z,96.80
2019-02-07T03:48:18.841Z,96.70
2019-02-07T03:51:06.780Z,96.70
2019-02-07T03:53:55.329Z,96.70
2019-02-07T03:56:31.753Z,96.60
2019-02-07T03:59:18.609Z,96.70
2019-02-07T04:02:05.698Z,96.60
2019-02-07T04:04:45.261Z,96.50
2019-02-07T04:07:15.949Z,96.60
2019-02-07T04:09:49.128Z,96.50
2019-02-07T04:12:25.596Z,96.50
2019-02-07T04:15:02.147Z,96.50
2019-02-07T04:17:49.566Z,96.40
2019-02-07T04:20:23.144Z,96.40
2019-02-07T04:22:56.182Z,96.30
2019-02-07T04:25:29.699Z,96.40
2019-02-07T04:28:00.170Z,96.30
2019-02-07T04:30:42.834Z,96.40
2019-02-07T04:33:25.201Z,96.30
2019-02-07T04:35:58.821Z,96.30
2019-02-07T04:38:45.884Z,96.30
2019-02-07T04:41:25.666Z,96.20
2019-02-07T04:44:08.392Z,96.20
2019-02-07T04:46:47.688Z,96.10
2019-02-07T04:49:24.292Z,96.30
2019-02-07T04:52:14.367Z,96.20
2019-02-07T04:55:03.030Z,96.20
2019-02-07T04:57:45.132Z,96.10
2019-02-07T05:00:21.273Z,95.90
2019-02-07T05:03:29.823Z,96.00
2019-02-07T05:06:03.581Z,95.90
2019-02-07T05:08:36.754Z,95.90
2019-02-07T05:11:10.963Z,95.80
2019-02-07T05:13:57.500Z,95.70
2019-02-07T05:17:22.180Z,95.70
2019-02-07T05:19:55.580Z,95.80
2019-02-07T05:22:45.272Z,95.80
2019-02-07T05:26:09.124Z,95.70
2019-02-07T05:28:48.591Z,95.80
2019-02-07T05:31:21.784Z,95.70
2019-02-07T05:33:55.426Z,95.70
2019-02-07T05:36:34.934Z,95.50
2019-02-07T05:39:10.925Z,95.70
2019-02-07T05:41:59.642Z,95.70
2019-02-07T05:44:37.126Z,95.70
2019-02-07T05:47:17.098Z,95.80
2019-02-07T05:49:47.506Z,95.70
2019-02-07T05:52:20.839Z,95.50
2019-02-07T05:55:03.182Z,95.30
2019-02-07T05:57:45.724Z,95.20
2019-02-07T06:00:33.930Z,95.20
2019-02-07T06:03:07.385Z,95.20
2019-02-07T06:05:44.062Z,95.30
2019-02-07T06:08:17.364Z,95.50
2019-02-07T06:11:04.424Z,95.40
2019-02-07T06:13:53.840Z,95.30
2019-02-07T06:16:33.294Z,95.20
2019-02-07T06:19:16.109Z,95.20
2019-02-07T06:21:48.275Z,95.20
2019-02-07T06:24:18.536Z,95.10
2019-02-07T06:26:55.064Z,95.20
2019-02-07T06:29:25.558Z,95.10
2019-02-07T06:32:02.973Z,95.10
2019-02-07T06:34:45.907Z,94.90
2019-02-07T06:37:19.902Z,94.90
2019-02-07T06:39:50.627Z,94.90
2019-02-07T06:42:26.261Z,94.90
2019-02-07T06:45:15.344Z,94.80
2019-02-07T06:48:03.534Z,94.80
2019-02-07T06:50:37.111Z,94.60
2019-02-07T06:53:07.618Z,94.50
2019-02-07T06:55:54.338Z,94.40
2019-02-07T06:58:30.633Z,94.30
2019-02-07T07:01:03.967Z,94.10
2019-02-07T07:03:43.918Z,94.00
2019-02-07T07:06:14.391Z,93.80
2019-02-07T07:08:44.830Z,93.70
2019-02-07T07:11:33.280Z,93.40
2019-02-07T07:14:03.751Z,93.20
2019-02-07T07:16:37.149Z,93.10
2019-02-07T07:19:11.393Z,92.90
2019-02-07T07:21:45.015Z,92.80
2019-02-07T07:24:31.899Z,92.60
2019-02-07T07:27:05.215Z,92.40
2019-02-07T07:29:38.504Z,92.10
2019-02-07T07:32:25.067Z,91.90
2019-02-07T07:35:12.531Z,91.80
2019-02-07T07:37:59.533Z,91.60
2019-02-07T07:40:46.333Z,91.30
2019-02-07T07:43:16.905Z,91.00
2019-02-07T07:45:59.766Z,90.80
2019-02-07T07:48:31.630Z,90.60
2019-02-07T07:51:14.633Z,90.40
2019-02-07T07:53:45.361Z,90.30
2019-02-07T07:56:22.638Z,89.70
2019-02-07T07:58:56.035Z,88.90
2019-02-07T08:01:29.510Z,88.00
2019-02-07T08:04:04.713Z,87.20
2019-02-07T08:06:35.088Z,86.30
2019-02-07T08:12:49.574Z,85.10
2019-02-07T08:15:35.029Z,84.60
2019-02-07T08:18:06.465Z,83.40
2019-02-07T08:20:45.170Z,82.90
2019-02-07T08:23:23.004Z,82.00
2019-02-07T08:26:15.270Z,81.80
2019-02-07T08:29:05.137Z,80.80
2019-02-07T08:32:02.337Z,78.40
2019-02-07T08:34:47.357Z,75.10
2019-02-07T08:37:20.701Z,71.30
2019-02-07T08:40:17.729Z,70.80
2019-02-07T08:43:04.301Z,70.50
2019-02-07T08:45:35.012Z,69.50
2019-02-07T08:48:17.762Z,69.70
2019-02-07T08:51:01.571Z,68.50
2019-02-07T08:53:45.167Z,65.30
2019-02-07T08:56:17.050Z,61.80
2019-02-07T08:59:03.703Z,59.20
2019-02-07T09:01:51.417Z,58.40
2019-02-07T09:04:24.993Z,56.10
2019-02-07T09:06:55.469Z,55.50
2019-02-07T09:09:26.132Z,56.20
2019-02-07T09:12:13.067Z,55.60
2019-02-07T09:14:47.255Z,55.00
2019-02-07T09:17:24.101Z,55.40
2019-02-07T09:20:00.711Z,53.30
2019-02-07T09:22:43.537Z,53.30
2019-02-07T09:25:25.931Z,51.90
2019-02-07T09:27:56.388Z,50.60
2019-02-07T09:30:33.063Z,49.80
2019-02-07T09:33:06.647Z,47.80
2019-02-07T09:35:52.329Z,47.60
2019-02-07T09:38:39.415Z,45.90
2019-02-07T09:41:18.887Z,45.30
2019-02-07T09:44:04.868Z,44.40
2019-02-07T09:46:35.490Z,43.60
2019-02-07T09:49:08.541Z,43.10
2019-02-07T09:51:38.247Z,42.00
2019-02-07T09:54:17.243Z,40.80
2019-02-07T09:57:06.708Z,39.80
2019-02-07T09:59:48.972Z,40.10
2019-02-07T10:02:22.710Z,40.40
2019-02-07T10:04:56.071Z,39.30
2019-02-07T10:07:44.679Z,38.80
2019-02-07T10:10:24.417Z,40.50
2019-02-07T10:13:03.970Z,44.40
2019-02-07T10:15:51.136Z,45.90
2019-02-07T10:18:32.850Z,48.00
2019-02-07T10:21:21.825Z,49.50
2019-02-07T10:23:55.349Z,50.10
2019-02-07T10:26:44.007Z,51.60
2019-02-07T10:29:21.985Z,52.60
2019-02-07T10:31:55.577Z,52.10
2019-02-07T10:34:42.621Z,52.60
2019-02-07T10:37:13.069Z,53.00
2019-02-07T10:39:52.188Z,53.10
2019-02-07T10:42:39.031Z,53.30
2019-02-07T10:45:21.071Z,53.50
2019-02-07T10:47:54.198Z,52.50
2019-02-07T10:50:46.889Z,52.60
2019-02-07T10:53:28.671Z,52.30
2019-02-07T10:56:18.785Z,52.10
2019-02-07T10:59:07.905Z,53.40
2019-02-07T11:01:38.352Z,53.40
2019-02-07T11:04:29.715Z,53.50
2019-02-07T11:07:16.573Z,53.80
2019-02-07T11:09:47.050Z,53.50
2019-02-07T11:12:36.586Z,53.00
2019-02-07T11:15:16.424Z,52.70
2019-02-07T11:17:52.755Z,52.50
2019-02-07T11:20:23.552Z,52.40
2019-02-07T11:23:00.156Z,52.80
2019-02-07T11:25:30.824Z,52.70
2019-02-07T11:28:11.349Z,52.80
2019-02-07T11:30:41.881Z,53.10
2019-02-07T11:33:15.587Z,52.80
2019-02-07T11:35:48.719Z,53.10
2019-02-07T11:38:35.323Z,53.60
2019-02-07T11:41:24.474Z,53.10
2019-02-07T11:43:58.686Z,53.20
2019-02-07T11:46:40.948Z,52.80
2019-02-07T11:49:27.856Z,53.30
2019-02-07T11:52:21.200Z,53.50
2019-02-07T11:54:53.212Z,53.30
2019-02-07T11:57:25.151Z,53.60
2019-02-07T12:00:05.774Z,53.80
2019-02-07T12:02:53.199Z,53.50
2019-02-07T12:05:39.809Z,53.00
2019-02-07T12:08:10.304Z,54.00
2019-02-07T12:10:44.319Z,53.30
2019-02-07T12:13:42.445Z,53.70
2019-02-07T12:16:13.325Z,52.90
2019-02-07T12:18:55.847Z,52.70
2019-02-07T12:21:42.602Z,52.30
2019-02-07T12:24:12.998Z,51.70
2019-02-07T12:26:58.472Z,51.70
2019-02-07T12:29:30.995Z,51.00
2019-02-07T12:32:01.212Z,50.90
2019-02-07T12:34:31.719Z,49.80
2019-02-07T12:37:05.325Z,49.50
2019-02-07T12:39:38.486Z,50.60
2019-02-07T12:42:11.687Z,47.00
2019-02-07T12:44:48.503Z,44.80
2019-02-07T12:47:24.859Z,46.20
2019-02-07T12:50:01.176Z,45.70
2019-02-07T12:52:43.505Z,46.50
2019-02-07T12:55:23.030Z,47.30
2019-02-07T12:57:55.238Z,48.20
2019-02-07T13:00:37.796Z,50.40
2019-02-07T13:03:23.258Z,51.20
2019-02-07T13:06:05.894Z,51.70
2019-02-07T13:08:36.312Z,51.40
2019-02-07T13:11:13.631Z,50.20
2019-02-07T13:14:02.354Z,49.40
2019-02-07T13:16:41.833Z,50.80
2019-02-07T13:19:18.320Z,49.90
2019-02-07T13:21:49.121Z,49.90
2019-02-07T13:24:28.980Z,50.00
2019-02-07T13:27:15.432Z,50.00
2019-02-07T13:29:48.848Z,49.60
2019-02-07T13:32:28.319Z,49.00
2019-02-07T13:35:01.467Z,47.70
2019-02-07T13:37:46.864Z,47.60
2019-02-07T13:40:32.891Z,47.10
2019-02-07T13:43:12.137Z,48.30
2019-02-07T13:45:55.099Z,47.90
2019-02-07T13:48:25.618Z,48.80
2019-02-07T13:50:58.875Z,47.20
2019-02-07T13:53:45.595Z,44.70
2019-02-07T13:56:27.711Z,43.40
2019-02-07T13:59:10.099Z,43.50
2019-02-07T14:01:55.588Z,45.00
2019-02-07T14:04:29.616Z,46.30
2019-02-07T14:07:00.182Z,47.00
2019-02-07T14:09:48.846Z,47.40
2019-02-07T14:12:19.215Z,47.40
2019-02-07T14:14:52.881Z,47.50
2019-02-07T14:17:38.062Z,47.80
2019-02-07T14:20:14.295Z,49.30
2019-02-07T14:22:49.420Z,50.20
2019-02-07T14:25:20.011Z,50.70
2019-02-07T14:28:09.400Z,51.70
2019-02-07T14:30:56.490Z,51.50
2019-02-07T14:33:29.861Z,52.20
2019-02-07T14:36:11.050Z,53.00
2019-02-07T14:38:43.113Z,54.50
2019-02-07T14:41:22.787Z,54.40
2019-02-07T14:43:54.215Z,54.00
2019-02-07T14:46:40.711Z,54.50
2019-02-07T14:49:15.385Z,55.40
2019-02-07T14:51:50.360Z,55.10
2019-02-07T14:54:19.246Z,55.00
2019-02-07T14:56:48.235Z,55.10
2019-02-07T14:59:17.088Z,55.50
2019-02-07T15:01:46.005Z,56.00
2019-02-07T15:04:14.872Z,56.20
2019-02-07T15:06:43.761Z,56.60
2019-02-07T15:11:43.667Z,57.20
2019-02-07T15:14:12.839Z,57.90
2019-02-07T15:16:41.608Z,58.70
2019-02-07T15:19:10.884Z,58.90
2019-02-07T15:21:39.842Z,59.50
2019-02-07T15:24:10.632Z,59.80
2019-02-07T15:26:39.517Z,60.10
2019-02-07T15:29:08.327Z,60.30
2019-02-07T15:31:37.413Z,60.30
2019-02-07T15:35:05.349Z,61.00
2019-02-07T15:36:46.913Z,61.70
2019-02-07T15:39:17.785Z,62.30
2019-02-07T15:41:46.944Z,62.70
2019-02-07T15:44:15.884Z,62.80
2019-02-07T15:46:44.912Z,63.10
2019-02-07T15:49:15.029Z,63.10
2019-02-07T15:51:54.672Z,63.30
2019-02-07T15:54:39.669Z,63.20
2019-02-07T15:57:02.330Z,63.30
2019-02-07T16:00:10.387Z,63.30
2019-02-07T16:02:15.698Z,63.80
2019-02-07T16:04:44.732Z,64.30
2019-02-07T16:07:19.893Z,64.70
2019-02-07T16:09:51.512Z,65.20
2019-02-07T16:12:41.987Z,65.80
2019-02-07T16:15:21.870Z,66.40
2019-02-07T16:17:50.448Z,66.00
2019-02-07T16:20:21.563Z,66.50
2019-02-07T16:22:50.801Z,67.20
2019-02-07T16:25:19.754Z,67.20
2019-02-07T16:27:48.657Z,67.60
2019-02-07T16:30:22.031Z,68.10
2019-02-07T16:32:51.083Z,69.30
2019-02-07T16:35:22.198Z,69.20
2019-02-07T16:37:51.437Z,69.70
2019-02-07T16:40:22.213Z,69.90
2019-02-07T16:42:57.655Z,69.60
2019-02-07T16:45:27.837Z,70.00
2019-02-07T16:47:59.771Z,70.40
2019-02-07T16:50:34.198Z,70.30
2019-02-07T16:53:03.125Z,70.60
2019-02-07T16:55:32.073Z,70.50
2019-02-07T16:58:01.967Z,70.70
2019-02-07T17:00:33.634Z,70.60
2019-02-07T17:03:02.757Z,70.60
2019-02-07T17:05:31.582Z,70.70
2019-02-07T17:08:00.502Z,70.60
2019-02-07T17:10:37.987Z,70.70
2019-02-07T17:13:17.161Z,70.90
2019-02-07T17:15:46.131Z,71.10
2019-02-07T17:18:15.220Z,71.10
2019-02-07T17:20:44.204Z,71.10
2019-02-07T17:23:13.185Z,71.40
2019-02-07T17:25:42.161Z,71.80
2019-02-07T17:28:11.833Z,71.40
2019-02-07T17:30:40.827Z,71.20
2019-02-07T17:33:09.600Z,71.40
2019-02-07T17:35:41.430Z,71.80
2019-02-07T17:38:13.562Z,72.10
2019-02-07T17:40:50.912Z,72.40
2019-02-07T17:43:34.456Z,72.80
2019-02-07T17:46:07.866Z,73.30
2019-02-07T17:49:00.453Z,73.50
2019-02-07T17:51:30.705Z,73.60
2019-02-07T17:54:06.534Z,73.80
2019-02-07T17:56:38.028Z,73.90
2019-02-07T17:59:12.791Z,74.20
2019-02-07T18:01:48.111Z,74.70
2019-02-07T18:04:21.906Z,74.90
2019-02-07T18:06:53.133Z,75.10
2019-02-07T18:09:30.598Z,75.20
2019-02-07T18:12:01.711Z,75.40
2019-02-07T18:14:32.335Z,75.60
2019-02-07T18:17:10.034Z,75.60
2019-02-07T18:19:45.592Z,75.50
2019-02-07T18:22:15.785Z,75.80
2019-02-07T18:25:11.435Z,75.80
2019-02-07T18:27:56.233Z,76.10
2019-02-07T18:30:39.546Z,76.10
2019-02-07T18:33:21.930Z,76.40
2019-02-07T18:35:50.914Z,76.70
2019-02-07T18:38:22.618Z,77.10
2019-02-07T18:40:57.383Z,77.20
2019-02-07T18:43:26.593Z,77.30
2019-02-07T18:46:00.963Z,77.40
2019-02-07T18:48:34.471Z,77.60
2019-02-07T18:51:23.627Z,77.90
2019-02-07T18:54:10.738Z,77.90
2019-02-07T18:56:40.074Z,78.10
2019-02-07T18:59:10.826Z,78.30
2019-02-07T19:01:47.046Z,78.30
2019-02-07T19:04:17.736Z,78.40
2019-02-07T19:06:56.031Z,78.80
2019-02-07T19:09:29.562Z,79.20
2019-02-07T19:12:11.264Z,79.70
2019-02-07T19:14:42.659Z,79.90
2019-02-07T19:17:17.221Z,80.00
2019-02-07T19:19:51.798Z,80.10
2019-02-07T19:22:28.263Z,80.30
2019-02-07T19:27:41.031Z,80.60
2019-02-07T19:30:33.521Z,80.70
2019-02-07T19:33:04.652Z,80.80
2019-02-07T19:35:37.358Z,81.10
2019-02-07T19:38:06.427Z,81.10
2019-02-07T19:40:35.571Z,81.10
2019-02-07T19:43:06.592Z,81.50
2019-02-07T19:45:35.391Z,81.50
2019-02-07T19:48:11.184Z,81.80
2019-02-07T19:50:38.619Z,81.80
2019-02-07T19:53:14.709Z,81.80
2019-02-07T19:55:43.562Z,82.00
2019-02-07T19:58:15.190Z,82.00
2019-02-07T20:00:49.469Z,82.20
2019-02-07T20:03:24.548Z,82.50
2019-02-07T20:05:53.368Z,82.50
2019-02-07T20:08:25.554Z,82.60
2019-02-07T20:10:56.291Z,82.70
2019-02-07T20:13:25.244Z,82.90
2019-02-07T20:15:55.170Z,83.10
2019-02-07T20:18:26.969Z,83.20
2019-02-07T20:21:06.395Z,83.40
2019-02-07T20:23:46.709Z,83.60
2019-02-07T20:26:19.596Z,83.80
2019-02-07T20:28:51.799Z,83.80
2019-02-07T20:31:26.635Z,84.10
2019-02-07T20:34:07.102Z,84.30
2019-02-07T20:36:39.333Z,84.50
2019-02-07T20:39:08.686Z,84.70
2019-02-07T20:41:37.697Z,84.90
2019-02-07T20:44:07.741Z,85.10
2019-02-07T20:46:40.870Z,85.10
2019-02-07T20:49:17.556Z,85.20
2019-02-07T20:51:46.407Z,85.30
2019-02-07T20:54:15.394Z,85.40
2019-02-07T20:56:52.591Z,85.80
2019-02-07T20:59:27.026Z,85.90
2019-02-07T21:01:55.855Z,86.00
2019-02-07T21:04:26.227Z,86.00
2019-02-07T21:07:03.836Z,86.00
2019-02-07T21:09:32.874Z,86.00
2019-02-07T21:12:04.800Z,85.80
2019-02-07T21:14:33.717Z,85.80
2019-02-07T21:17:02.674Z,85.90
2019-02-07T21:19:31.771Z,86.10
2019-02-07T21:22:00.624Z,86.30
2019-02-07T21:24:30.761Z,86.50
2019-02-07T21:27:09.506Z,86.70
2019-02-07T21:29:39.994Z,86.50
2019-02-07T21:32:10.491Z,86.50
2019-02-07T21:34:53.048Z,86.40
2019-02-07T21:37:25.661Z,87.20
2019-02-07T21:39:54.530Z,86.30
2019-02-07T21:42:23.338Z,86.30
2019-02-07T21:44:52.304Z,86.30
2019-02-07T21:47:21.182Z,86.40
2019-02-07T21:49:50.073Z,86.40
2019-02-07T21:52:19.006Z,86.40
2019-02-07T21:54:48.416Z,86.30
2019-02-07T21:57:17.242Z,86.30
2019-02-07T21:59:46.215Z,86.30
2019-02-07T22:02:15.114Z,86.00
2019-02-07T22:04:44.058Z,85.80
2019-02-07T22:07:13.049Z,85.70
2019-02-07T22:10:00.337Z,85.40
2019-02-07T22:12:32.727Z,85.30
2019-02-07T22:15:02.045Z,85.20
2019-02-07T22:17:31.019Z,85.30
2019-02-07T22:19:59.942Z,85.50
2019-02-07T22:22:29.132Z,85.80
2019-02-07T22:24:58.128Z,85.50
2019-02-07T22:27:27.033Z,85.60
2019-02-07T22:29:55.974Z,85.40
2019-02-07T22:32:24.915Z,85.30
2019-02-07T22:34:53.972Z,85.10
2019-02-07T22:37:23.528Z,85.50
2019-02-07T22:39:52.475Z,84.90
2019-02-07T22:42:21.445Z,85.10
2019-02-07T22:44:50.306Z,84.70
2019-02-07T22:47:19.313Z,84.70
2019-02-07T22:49:48.260Z,85.00
2019-02-07T22:52:17.031Z,84.90
2019-02-07T22:54:45.880Z,85.10
2019-02-07T22:57:14.889Z,85.40
2019-02-07T22:59:43.771Z,84.80
2019-02-07T23:02:12.752Z,84.70
2019-02-07T23:04:41.741Z,84.90
2019-02-07T23:07:10.772Z,84.80
2019-02-07T23:09:39.779Z,84.90
2019-02-07T23:12:08.833Z,85.00
2019-02-07T23:14:37.760Z,85.10
2019-02-07T23:17:06.622Z,85.50
2019-02-07T23:19:35.420Z,85.70
2019-02-07T23:22:05.152Z,85.60
2019-02-07T23:24:34.899Z,85.40
2019-02-07T23:27:04.633Z,85.60
2019-02-07T23:29:33.625Z,85.70
2019-02-07T23:32:03.969Z,85.70
2019-02-07T23:34:32.890Z,85.90
2019-02-07T23:37:01.863Z,86.00
2019-02-07T23:39:31.297Z,86.40
2019-02-07T23:42:00.219Z,86.30
2019-02-07T23:44:29.164Z,86.40
2019-02-07T23:46:58.136Z,86.50
2019-02-07T23:49:27.030Z,86.70
2019-02-07T23:51:56.028Z,86.80
2019-02-07T23:54:25.047Z,87.00
2019-02-07T23:56:54.103Z,86.90
2019-02-07T23:59:23.049Z,87.00
